Aérodrome :







RETROUVEZ-NOUS SUR...

 
LOGIN :

S'inscrire | Disclaimer

   EN    FR    IT 

 









Légende :    VFR   VFR Marginal   IFR   IFR Intensif   IFR Très Intensif
Visi : 
Plafond : 
>= 8 km
>= 3000ft
5 à 8 km
1000 à 3000 ft
1500m à 5 km
500 à 1000 ft
800 à 1500m
200 à 500 ft
< 800m
< 200 ft
Symboles :   Orages  Brouillard  Fortes neiges  Fortes précipitations  Vent > 20 kt






- Altitude de l'aérodrome : 334 ft
- AEROPORT FERMÉ.


KCWN - White Mountain

DERNIER METAR :
  • 141158Z AUTO 20004KT 10SM SCT150 23/03 A3008 RMK AO2 SLP986 T02310030 10234 20185 50004 PWINO $

METARs EXPIRÉS :
  • 141058Z AUTO 28004KT 10SM BKN140 21/05 A3006 RMK AO2 SLP983 T02130049 PWINO $
  • 140958Z AUTO 33003KT 10SM BKN120 20/07 A3007 RMK AO2 SLP986 T01970066 PWINO $

TAF N/A



MET'MAP, la Météo Aéronautique d'un coup d'oeil ! - Copyright ORBIFLY Décembre 2007 - Disclaimer

ORBIFLY MET'MAP TEAM :

Programmation & Développement : Alexandra Zaïnal
Sur une idée originale de : Baudouin d'Aumeries
Assistance à la programmation : Marc-Olivier Méhu
Soutien technique & logistique : Manuel Goepfert

Contact : metmap@orbifly.com




SOURCES & CREDITS :

   NOAA